Time;durP1;ratioP1;P1;durP2;ratioP2;P2;SDS_P1;SDS_P2;PMS_P1;PMS_P2;Temp;Humidity;BMP_temperature;BMP_pressure;BME280_temperature;BME280_humidity;BME280_pressure;Samples;Min_cycle;Max_cycle;Signal;HPM_P1;HPM_P2
2021/05/21 00:00:26;;;;;;;7.40;6.13;;;;;;;10.79;62.18;100030.92;153932;1101;103100;-73
2021/05/21 00:03:29;;;;;;;7.60;6.23;;;;;;;10.72;62.64;100027.24;153972;1101;103224;-74
2021/05/21 00:06:33;;;;;;;7.93;5.77;;;;;;;10.69;62.38;100018.72;153985;1095;103144;-75
2021/05/21 00:09:36;;;;;;;8.70;6.07;;;;;;;10.65;62.60;100028.04;153944;1096;103557;-74
2021/05/21 00:12:40;;;;;;;6.80;5.80;;;;;;;10.56;62.35;100014.63;153960;1102;103143;-76
2021/05/21 00:15:44;;;;;;;6.10;4.90;;;;;;;10.49;62.54;100008.28;153918;1096;103157;-74
2021/05/21 00:18:48;;;;;;;9.30;4.90;;;;;;;10.49;62.26;100012.76;153976;1096;103227;-75
2021/05/21 00:21:51;;;;;;;8.33;5.27;;;;;;;10.48;62.33;100011.93;153963;1101;103151;-74
2021/05/21 00:24:55;;;;;;;8.35;5.20;;;;;;;10.41;62.52;100010.88;153955;1095;103278;-76
2021/05/21 00:27:59;;;;;;;6.90;5.40;;;;;;;10.36;62.49;100013.20;154041;1101;103217;-76
2021/05/21 00:31:02;;;;;;;6.70;5.80;;;;;;;10.32;62.58;100001.19;153932;1096;103253;-77
2021/05/21 00:34:06;;;;;;;6.43;5.30;;;;;;;10.23;61.84;100005.58;153976;1101;103128;-76
2021/05/21 00:37:09;;;;;;;7.10;5.60;;;;;;;10.16;62.33;100010.72;153951;1095;103121;-76
2021/05/21 00:40:14;;;;;;;7.60;5.90;;;;;;;10.09;62.50;100011.50;153959;1096;103177;-76
2021/05/21 00:43:18;;;;;;;7.90;6.57;;;;;;;10.02;62.45;100005.94;153998;1096;103578;-77
2021/05/21 00:46:22;;;;;;;8.47;6.00;;;;;;;9.97;62.79;100011.75;153995;1101;103226;-76
2021/05/21 00:49:25;;;;;;;7.63;5.70;;;;;;;9.91;62.40;100008.85;153942;1096;103150;-74
2021/05/21 00:52:30;;;;;;;6.47;5.53;;;;;;;9.83;62.51;100006.95;153935;1095;103148;-73
2021/05/21 00:55:34;;;;;;;6.40;5.73;;;;;;;9.77;62.50;100007.58;153943;1101;103174;-75
2021/05/21 00:58:38;;;;;;;8.05;6.35;;;;;;;9.70;62.57;100006.52;153980;1101;103117;-74
2021/05/21 01:01:41;;;;;;;7.80;5.97;;;;;;;9.59;62.76;100003.10;153956;1101;103145;-77
2021/05/21 01:04:45;;;;;;;8.67;6.30;;;;;;;9.50;62.21;100003.19;153944;1101;103205;-75
2021/05/21 01:07:49;;;;;;;7.80;5.60;;;;;;;9.40;62.84;100004.09;153968;1096;103243;-77
2021/05/21 01:10:52;;;;;;;8.13;6.10;;;;;;;9.41;63.35;99997.79;153917;1101;103269;-74
2021/05/21 01:13:56;;;;;;;8.30;7.00;;;;;;;9.43;63.14;99995.81;153975;1101;103224;-75
2021/05/21 01:17:00;;;;;;;8.47;6.77;;;;;;;9.44;63.28;99996.64;153959;1101;103234;-76
2021/05/21 01:20:07;;;;;;;12.37;7.80;;;;;;;9.44;63.32;99997.47;153938;1101;103173;-77
2021/05/21 01:23:10;;;;;;;10.60;7.87;;;;;;;9.43;62.90;100001.14;154001;1096;103250;-78
2021/05/21 01:26:14;;;;;;;10.67;7.93;;;;;;;9.39;63.39;99994.45;153924;1096;103233;-74
2021/05/21 01:29:18;;;;;;;9.70;7.75;;;;;;;9.33;63.56;99997.69;153990;1095;103564;-74
2021/05/21 01:32:21;;;;;;;10.97;7.90;;;;;;;9.28;63.08;99996.50;154041;1101;103185;-75
2021/05/21 01:35:25;;;;;;;9.20;7.85;;;;;;;9.20;63.32;99999.91;154008;1101;103142;-75
2021/05/21 01:38:29;;;;;;;9.33;7.50;;;;;;;9.12;63.28;99999.80;154058;1101;103486;-74
2021/05/21 01:41:34;;;;;;;9.65;7.50;;;;;;;9.06;63.67;99993.25;154010;1094;103338;-75
2021/05/21 01:44:38;;;;;;;11.03;7.70;;;;;;;9.02;63.30;99998.03;154014;1101;103919;-77
2021/05/21 01:47:42;;;;;;;8.90;7.10;;;;;;;8.99;63.55;99993.03;154100;1094;103145;-73
2021/05/21 01:50:45;;;;;;;9.77;7.07;;;;;;;9.06;63.55;99995.91;154038;1095;103502;-75
2021/05/21 01:53:49;;;;;;;9.60;7.10;;;;;;;9.09;63.86;99989.47;154108;1101;103218;-74
2021/05/21 01:56:52;;;;;;;9.17;7.13;;;;;;;9.11;63.35;99984.84;154046;1101;103249;-74
2021/05/21 01:59:56;;;;;;;12.23;7.50;;;;;;;9.12;63.55;99991.81;154049;1101;103203;-73
2021/05/21 02:03:00;;;;;;;9.10;7.50;;;;;;;9.08;63.68;99991.27;154116;1101;103227;-73
2021/05/21 02:06:04;;;;;;;11.35;7.30;;;;;;;9.07;63.64;99986.13;154038;1101;103135;-73
2021/05/21 02:09:10;;;;;;;11.07;7.60;;;;;;;9.00;63.53;99984.04;154022;1101;103147;-71
2021/05/21 02:12:14;;;;;;;10.57;7.43;;;;;;;8.91;63.70;99976.98;154050;1101;103205;-75
2021/05/21 02:15:18;;;;;;;10.33;7.67;;;;;;;8.84;63.94;99981.21;154040;1101;103173;-73
2021/05/21 02:18:21;;;;;;;9.45;7.80;;;;;;;8.80;63.21;99977.17;153960;1101;103224;-73
2021/05/21 02:21:31;;;;;;;9.00;7.40;;;;;;;8.74;63.30;99980.44;153991;1101;103147;-73
2021/05/21 02:24:35;;;;;;;9.55;7.10;;;;;;;8.66;63.47;99978.52;153999;1096;103219;-76
2021/05/21 02:27:39;;;;;;;8.70;6.87;;;;;;;8.59;63.72;99983.56;153953;1101;103208;-73
2021/05/21 02:30:43;;;;;;;8.30;7.05;;;;;;;8.59;63.29;99988.06;153953;1101;103223;-73
2021/05/21 02:33:46;;;;;;;9.37;6.73;;;;;;;8.57;63.50;99988.20;154035;1101;103236;-72
2021/05/21 02:36:50;;;;;;;8.40;6.70;;;;;;;8.60;63.83;99984.40;153993;1101;103600;-73
2021/05/21 02:39:54;;;;;;;9.70;6.73;;;;;;;8.63;63.87;99998.24;153992;1101;103576;-73
2021/05/21 02:42:57;;;;;;;8.53;6.40;;;;;;;8.65;63.76;99985.63;153939;1101;103277;-74
2021/05/21 02:46:01;;;;;;;8.30;6.70;;;;;;;8.69;63.89;99985.35;153962;1101;103157;-76
2021/05/21 02:49:05;;;;;;;10.00;7.40;;;;;;;8.76;63.54;99994.42;153964;1101;103490;-74
2021/05/21 02:52:08;;;;;;;9.53;7.33;;;;;;;8.81;63.91;99981.50;153932;1101;103200;-75
2021/05/21 02:55:14;;;;;;;10.07;7.27;;;;;;;8.90;64.19;99987.77;153995;1096;103099;-74
2021/05/21 02:58:19;;;;;;;9.50;7.20;;;;;;;8.96;64.42;99977.34;153987;1101;103315;-74
2021/05/21 03:01:22;;;;;;;9.90;7.53;;;;;;;9.00;63.79;99968.08;154076;1101;103208;-76
2021/05/21 03:04:26;;;;;;;9.27;7.30;;;;;;;9.04;63.96;99977.45;153961;1095;103211;-76
2021/05/21 03:07:30;;;;;;;8.65;7.55;;;;;;;9.07;64.27;99972.82;154053;1096;103121;-75
2021/05/21 03:10:33;;;;;;;10.53;8.17;;;;;;;9.11;64.23;99979.52;153928;1096;103216;-75
2021/05/21 03:13:37;;;;;;;9.10;7.30;;;;;;;9.15;63.89;99978.22;153995;1101;103224;-74
2021/05/21 03:16:40;;;;;;;9.20;6.90;;;;;;;9.23;64.52;99983.62;153995;1101;103173;-76
2021/05/21 03:19:46;;;;;;;9.07;7.50;;;;;;;9.36;64.31;99984.08;153962;1095;103229;-73
2021/05/21 03:22:49;;;;;;;9.93;6.73;;;;;;;9.51;64.40;99980.91;153946;1101;103228;-73
2021/05/21 03:25:53;;;;;;;10.67;7.77;;;;;;;9.67;64.27;99981.03;153972;1101;103560;-76
2021/05/21 03:28:57;;;;;;;9.37;7.50;;;;;;;9.81;64.37;99982.30;153943;1101;103269;-75
2021/05/21 03:32:01;;;;;;;9.67;7.83;;;;;;;10.00;64.71;99976.77;154018;1096;103270;-76
2021/05/21 03:35:05;;;;;;;10.10;7.73;;;;;;;10.27;64.23;99968.78;153955;1101;103342;-77
2021/05/21 03:38:09;;;;;;;11.77;8.03;;;;;;;10.45;64.71;99964.25;153932;1096;103174;-76
2021/05/21 03:41:13;;;;;;;10.37;7.77;;;;;;;10.52;64.14;99961.77;153985;1101;103227;-76
2021/05/21 03:44:16;;;;;;;9.30;7.67;;;;;;;10.57;64.46;99967.47;153984;1094;103426;-76
2021/05/21 03:47:20;;;;;;;12.00;8.17;;;;;;;10.61;64.35;99969.64;153982;1101;103202;-76
2021/05/21 03:50:24;;;;;;;8.37;6.90;;;;;;;10.68;64.34;99966.33;153920;1101;103237;-77
2021/05/21 03:53:28;;;;;;;8.45;6.10;;;;;;;10.77;64.41;99962.70;153960;1095;103315;-74
2021/05/21 03:56:31;;;;;;;9.20;6.57;;;;;;;10.90;64.35;99957.73;153993;1096;103136;-75
2021/05/21 03:59:35;;;;;;;8.13;7.20;;;;;;;11.09;64.90;99955.80;153955;1101;103287;-74
2021/05/21 04:02:39;;;;;;;7.93;6.73;;;;;;;11.21;64.20;99967.82;153968;1101;103156;-74
2021/05/21 04:05:42;;;;;;;9.73;8.13;;;;;;;11.24;64.30;99962.16;153959;1101;103145;-74
2021/05/21 04:08:46;;;;;;;8.53;7.13;;;;;;;11.30;64.26;99964.17;153956;1096;103118;-75
2021/05/21 04:11:49;;;;;;;11.03;7.70;;;;;;;11.42;64.03;99964.68;153965;1101;103211;-73
2021/05/21 04:14:53;;;;;;;8.37;7.23;;;;;;;11.52;64.81;99967.19;154054;1094;103275;-74
2021/05/21 04:17:56;;;;;;;10.40;7.87;;;;;;;11.56;64.43;99965.85;154048;1096;103219;-74
2021/05/21 04:21:00;;;;;;;8.83;7.53;;;;;;;11.68;64.68;99967.20;154005;1101;103224;-74
2021/05/21 04:24:05;;;;;;;9.45;8.00;;;;;;;11.93;64.13;99965.38;153977;1101;103221;-74
2021/05/21 04:27:09;;;;;;;9.10;7.60;;;;;;;12.17;64.03;99967.16;154100;1095;103203;-74
2021/05/21 04:30:15;;;;;;;8.93;7.17;;;;;;;12.49;64.11;99960.06;153992;1101;103273;-74
2021/05/21 04:33:18;;;;;;;8.67;7.13;;;;;;;12.80;63.84;99963.77;154014;1101;103163;-74
2021/05/21 04:36:22;;;;;;;10.67;8.70;;;;;;;13.08;63.78;99948.88;154022;1096;103129;-73
2021/05/21 04:39:26;;;;;;;8.70;7.77;;;;;;;13.27;63.84;99957.48;154030;1095;103484;-74
2021/05/21 04:42:30;;;;;;;10.70;8.30;;;;;;;13.48;63.27;99955.01;153938;1101;103425;-75
2021/05/21 04:45:33;;;;;;;9.50;7.93;;;;;;;13.67;63.21;99948.33;153921;1101;103224;-74
2021/05/21 04:48:37;;;;;;;9.83;8.07;;;;;;;13.84;63.38;99958.92;153957;1096;103224;-74
2021/05/21 04:51:40;;;;;;;9.43;8.10;;;;;;;14.03;63.28;99954.86;153967;1095;103627;-74
2021/05/21 04:54:44;;;;;;;9.50;7.80;;;;;;;14.20;62.88;99942.11;153978;1096;103110;-75
2021/05/21 04:57:50;;;;;;;9.40;7.90;;;;;;;14.40;62.59;99953.97;153956;1095;103161;-75
2021/05/21 05:00:54;;;;;;;8.77;7.37;;;;;;;14.59;62.30;99949.07;153958;1101;103227;-75
2021/05/21 05:03:57;;;;;;;8.43;7.10;;;;;;;14.80;62.56;99950.98;153981;1101;103157;-74
2021/05/21 05:07:01;;;;;;;9.67;7.37;;;;;;;15.06;62.32;99942.41;153991;1095;103142;-74
2021/05/21 05:10:05;;;;;;;9.67;7.67;;;;;;;15.27;62.52;99944.29;153953;1101;103357;-73
2021/05/21 05:13:09;;;;;;;8.50;7.50;;;;;;;15.46;61.72;99945.52;153978;1096;103217;-76
2021/05/21 05:16:12;;;;;;;8.03;6.40;;;;;;;15.51;62.19;99945.75;153955;1096;103202;-74
2021/05/21 05:19:16;;;;;;;7.50;6.00;;;;;;;15.48;61.56;99940.77;153960;1101;103125;-75
2021/05/21 05:22:20;;;;;;;6.73;6.03;;;;;;;15.38;61.03;99943.78;153988;1101;103184;-75
2021/05/21 05:25:24;;;;;;;6.57;5.87;;;;;;;15.24;61.38;99947.34;153939;1101;103556;-73
2021/05/21 05:28:27;;;;;;;6.60;5.60;;;;;;;15.23;61.78;99941.15;153986;1096;103233;-74
2021/05/21 05:31:32;;;;;;;6.75;5.60;;;;;;;15.24;61.32;99945.52;153988;1096;103143;-76
2021/05/21 05:34:35;;;;;;;7.63;6.13;;;;;;;15.23;61.60;99943.84;154031;1101;103136;-75
2021/05/21 05:37:39;;;;;;;6.73;5.57;;;;;;;15.24;61.17;99934.77;153988;1095;103219;-75
2021/05/21 05:40:42;;;;;;;8.50;6.87;;;;;;;15.28;61.76;99940.56;153931;1101;103186;-76
2021/05/21 05:43:46;;;;;;;8.50;6.20;;;;;;;15.26;61.46;99938.09;153987;1101;103128;-75
2021/05/21 05:46:50;;;;;;;8.60;6.67;;;;;;;15.36;61.12;99931.54;153948;1096;103147;-75
2021/05/21 05:49:53;;;;;;;8.25;6.95;;;;;;;15.39;61.04;99931.98;153979;1095;103142;-77
2021/05/21 05:52:57;;;;;;;7.80;6.57;;;;;;;15.39;61.33;99937.36;154231;1096;103212;-76
2021/05/21 05:56:00;;;;;;;7.13;6.23;;;;;;;15.41;61.18;99935.31;154177;1096;103468;-73
2021/05/21 05:59:04;;;;;;;8.27;6.40;;;;;;;15.45;60.98;99930.39;154070;1095;103144;-75
2021/05/21 06:02:08;;;;;;;7.67;6.40;;;;;;;15.51;60.84;99929.61;153978;1101;103184;-72
2021/05/21 06:05:12;;;;;;;7.37;6.30;;;;;;;15.55;60.33;99924.68;154046;1101;103099;-73
2021/05/21 06:08:15;;;;;;;7.20;6.20;;;;;;;15.56;60.53;99919.12;153977;1101;103139;-71
2021/05/21 06:11:19;;;;;;;7.70;5.90;;;;;;;15.66;60.84;99918.78;153991;1101;103124;-72
2021/05/21 06:14:22;;;;;;;7.30;5.57;;;;;;;15.73;61.02;99911.64;153998;1096;103137;-75
2021/05/21 06:17:26;;;;;;;7.67;5.60;;;;;;;15.76;60.48;99915.78;153994;1096;103263;-72
2021/05/21 06:20:31;;;;;;;5.50;5.00;;;;;;;15.70;60.29;99918.22;154004;1101;103221;-72
2021/05/21 06:23:35;;;;;;;6.10;5.50;;;;;;;15.64;60.32;99916.28;154108;1101;103220;-72
2021/05/21 06:26:42;;;;;;;5.80;5.20;;;;;;;15.60;60.11;99922.25;156403;1101;103046;-73
2021/05/21 06:29:45;;;;;;;6.27;5.33;;;;;;;15.60;60.22;99915.02;154636;1101;103215;-71
2021/05/21 06:32:48;;;;;;;7.00;5.40;;;;;;;15.63;60.33;99919.19;154099;1101;103220;-72
2021/05/21 06:35:52;;;;;;;6.83;4.90;;;;;;;15.58;59.17;99903.62;154025;1101;103196;-73
2021/05/21 06:38:55;;;;;;;6.67;5.30;;;;;;;15.54;59.83;99909.59;153987;1101;103122;-74
2021/05/21 06:41:59;;;;;;;5.30;4.80;;;;;;;15.61;60.26;99897.86;154049;1101;103219;-72
2021/05/21 06:45:03;;;;;;;10.00;5.63;;;;;;;15.70;60.16;99894.01;154000;1095;103195;-72
2021/05/21 06:48:08;;;;;;;5.53;4.90;;;;;;;15.77;59.60;99895.94;153959;1096;103211;-72
2021/05/21 06:51:11;;;;;;;4.97;4.27;;;;;;;15.82;59.42;99898.86;154005;1101;103487;-73
2021/05/21 06:54:15;;;;;;;4.87;4.10;;;;;;;15.87;58.94;99891.03;154086;1095;103218;-71
2021/05/21 06:57:18;;;;;;;5.90;3.87;;;;;;;15.94;58.57;99889.23;154044;1101;103169;-72
2021/05/21 07:00:22;;;;;;;4.20;3.70;;;;;;;15.96;58.53;99879.09;154000;1096;103579;-72
2021/05/21 07:03:28;;;;;;;4.60;4.10;;;;;;;16.05;58.49;99877.92;153973;1096;103237;-72
2021/05/21 07:06:31;;;;;;;4.13;3.27;;;;;;;16.21;57.91;99867.86;154081;1101;103591;-71
2021/05/21 07:09:35;;;;;;;4.43;3.50;;;;;;;16.34;56.48;99867.06;153954;1096;103124;-72
2021/05/21 07:12:39;;;;;;;7.93;2.80;;;;;;;16.46;56.66;99869.00;154038;1096;103124;-71
2021/05/21 07:15:43;;;;;;;4.45;3.40;;;;;;;16.64;57.29;99854.14;154002;1094;103497;-71
2021/05/21 07:18:46;;;;;;;3.55;2.30;;;;;;;16.81;54.55;99855.42;153964;1098;103181;-72
2021/05/21 07:21:50;;;;;;;2.63;2.40;;;;;;;16.90;55.58;99852.57;154025;1101;103224;-73
2021/05/21 07:24:53;;;;;;;4.85;2.60;;;;;;;16.98;55.50;99857.79;153980;1096;103219;-72
2021/05/21 07:27:57;;;;;;;5.67;3.23;;;;;;;17.00;54.63;99861.11;153952;1096;103099;-72
2021/05/21 07:31:01;;;;;;;3.00;1.80;;;;;;;17.00;54.92;99843.06;153996;1095;103121;-71
2021/05/21 07:34:05;;;;;;;2.53;1.50;;;;;;;16.96;55.15;99841.81;154025;1096;103273;-72
2021/05/21 07:37:08;;;;;;;2.00;1.80;;;;;;;17.00;52.58;99845.76;153978;1101;103310;-72
2021/05/21 07:40:13;;;;;;;2.10;1.90;;;;;;;16.99;54.92;99840.56;154015;1101;103100;-72
2021/05/21 07:43:16;;;;;;;4.67;1.80;;;;;;;17.04;54.53;99841.61;153945;1101;104347;-72
2021/05/21 07:46:21;;;;;;;3.87;2.03;;;;;;;17.10;54.33;99839.96;154055;1095;103259;-72
2021/05/21 07:49:24;;;;;;;2.60;1.80;;;;;;;17.11;52.38;99838.94;154098;1101;103195;-73
2021/05/21 07:52:28;;;;;;;2.67;1.60;;;;;;;17.15;53.53;99839.33;153990;1101;103132;-73
2021/05/21 07:55:32;;;;;;;2.10;1.90;;;;;;;17.25;52.86;99835.20;154071;1101;103122;-72
2021/05/21 07:58:35;;;;;;;2.30;1.70;;;;;;;17.42;53.93;99829.41;153997;1096;103252;-72
2021/05/21 08:01:39;;;;;;;2.80;2.50;;;;;;;17.55;53.07;99834.80;154008;1096;103216;-75
2021/05/21 08:04:43;;;;;;;2.40;1.50;;;;;;;17.60;52.00;99837.67;154467;1096;103311;-73
2021/05/21 08:07:46;;;;;;;3.37;1.50;;;;;;;17.71;50.89;99835.39;154197;1096;103216;-72
2021/05/21 08:10:51;;;;;;;2.00;1.40;;;;;;;17.60;51.76;99826.06;154094;1101;103215;-72
2021/05/21 08:13:55;;;;;;;3.27;1.63;;;;;;;17.50;52.03;99829.19;154126;1101;103125;-72
2021/05/21 08:16:58;;;;;;;2.67;1.83;;;;;;;17.41;51.44;99823.16;154036;1101;103137;-72
2021/05/21 08:20:03;;;;;;;4.77;2.00;;;;;;;17.36;51.16;99827.52;154379;1096;103136;-74
2021/05/21 08:23:07;;;;;;;2.17;1.90;;;;;;;17.44;51.87;99816.54;154117;1101;103124;-72
2021/05/21 08:26:11;;;;;;;3.50;1.87;;;;;;;17.50;51.37;99804.91;154308;1101;103102;-73
2021/05/21 08:29:15;;;;;;;3.40;1.90;;;;;;;17.72;51.20;99824.37;154142;1096;103119;-72
2021/05/21 08:32:18;;;;;;;2.57;2.10;;;;;;;17.82;50.80;99813.14;154055;1101;103096;-73
2021/05/21 08:35:24;;;;;;;3.60;2.00;;;;;;;17.98;49.54;99803.80;154039;1101;103219;-74
2021/05/21 08:38:27;;;;;;;2.77;1.80;;;;;;;18.15;50.45;99815.78;154006;1101;103487;-72
2021/05/21 08:41:33;;;;;;;4.33;1.80;;;;;;;18.33;49.81;99800.75;153977;1101;103142;-73
2021/05/21 08:44:45;;;;;;;1.60;1.50;;;;;;;18.30;50.07;99801.17;154049;1096;103209;-73
2021/05/21 08:47:49;;;;;;;3.25;1.50;;;;;;;18.26;49.99;99789.97;154032;1101;103136;-72
2021/05/21 08:50:52;;;;;;;2.67;1.90;;;;;;;18.42;49.71;99788.66;154063;1096;103301;-73
2021/05/21 08:53:56;;;;;;;2.60;2.07;;;;;;;18.53;49.75;99785.25;154057;1101;103156;-72
2021/05/21 08:57:00;;;;;;;3.80;2.20;;;;;;;18.69;49.62;99783.08;153976;1101;103186;-73
2021/05/21 09:00:05;;;;;;;2.53;2.03;;;;;;;18.89;49.51;99777.58;153979;1101;103240;-74
2021/05/21 09:03:24;;;;;;;3.13;2.10;;;;;;;18.96;47.79;99787.30;154151;1101;103129;-73
2021/05/21 09:06:28;;;;;;;3.83;2.40;;;;;;;19.17;48.75;99777.16;154024;1101;103219;-72
2021/05/21 09:09:45;;;;;;;5.00;2.10;;;;;;;19.38;48.58;99775.91;154088;1101;103547;-74
2021/05/21 09:12:49;;;;;;;3.33;2.03;;;;;;;19.49;47.71;99768.95;153991;1101;103125;-72
2021/05/21 09:15:53;;;;;;;2.80;1.95;;;;;;;19.42;48.30;99758.20;153970;1101;103164;-72
2021/05/21 09:19:20;;;;;;;2.33;1.97;;;;;;;19.38;48.60;99757.81;154042;1101;103141;-72
2021/05/21 09:22:23;;;;;;;2.10;1.90;;;;;;;19.30;47.09;99762.67;153879;1101;103224;-71
2021/05/21 09:25:43;;;;;;;2.57;2.10;;;;;;;19.34;47.44;99764.73;154115;1101;103217;-73
2021/05/21 09:28:47;;;;;;;3.17;2.00;;;;;;;19.45;47.65;99757.73;154062;1101;103034;-72
2021/05/21 09:31:51;;;;;;;4.97;2.03;;;;;;;19.49;47.22;99758.94;153954;1096;103166;-72
2021/05/21 09:35:04;;;;;;;2.77;2.13;;;;;;;19.52;46.95;99758.50;153968;1094;103487;-72
2021/05/21 09:38:15;;;;;;;2.67;1.93;;;;;;;19.52;46.22;99753.09;153975;1101;103247;-72
2021/05/21 09:41:19;;;;;;;2.90;1.75;;;;;;;19.45;46.65;99757.73;154008;1101;103253;-74
2021/05/21 09:44:24;;;;;;;3.25;2.20;;;;;;;19.47;46.21;99752.11;154009;1101;103232;-72
2021/05/21 09:47:49;;;;;;;2.05;1.85;;;;;;;19.56;46.62;99731.83;154109;1101;103496;-73
2021/05/21 09:50:53;;;;;;;2.40;1.80;;;;;;;19.65;45.76;99741.31;154012;1101;103189;-73
2021/05/21 09:54:03;;;;;;;2.90;1.90;;;;;;;19.64;46.41;99738.83;153935;1101;103179;-71
2021/05/21 09:57:09;;;;;;;3.13;1.90;;;;;;;19.65;46.02;99733.19;154857;1101;103307;-73
2021/05/21 10:00:15;;;;;;;2.73;1.63;;;;;;;19.61;46.55;99724.69;155015;1101;103142;-72
2021/05/21 10:03:18;;;;;;;3.45;1.80;;;;;;;19.61;46.32;99723.84;153967;1101;103132;-74
2021/05/21 10:06:24;;;;;;;5.30;1.70;;;;;;;19.68;46.41;99724.59;154185;1095;103139;-75
2021/05/21 10:09:27;;;;;;;4.03;1.70;;;;;;;19.77;45.86;99717.87;154047;1095;103259;-73
2021/05/21 10:12:31;;;;;;;1.87;1.60;;;;;;;19.74;46.00;99714.78;154017;1101;103273;-75
2021/05/21 10:15:35;;;;;;;3.23;2.07;;;;;;;19.60;45.74;99716.79;153945;1101;103220;-77
2021/05/21 10:18:39;;;;;;;3.47;2.20;;;;;;;19.57;45.46;99707.25;154083;1101;103248;-76
2021/05/21 10:21:43;;;;;;;2.10;1.90;;;;;;;19.52;44.51;99698.98;154040;1101;103247;-74
2021/05/21 10:24:51;;;;;;;3.15;1.75;;;;;;;19.33;45.55;99690.02;154066;1101;103274;-73
2021/05/21 10:27:57;;;;;;;2.83;1.70;;;;;;;19.25;45.48;99693.02;154021;1101;103123;-74
2021/05/21 10:31:03;;;;;;;5.03;1.70;;;;;;;19.28;45.50;99684.44;153995;1096;103147;-74
2021/05/21 10:34:15;;;;;;;5.10;1.70;;;;;;;19.41;45.55;99672.66;153970;1096;103064;-73
2021/05/21 10:37:39;;;;;;;3.67;2.03;;;;;;;19.55;45.71;99662.50;153990;1096;104671;-74
2021/05/21 10:41:15;;;;;;;3.55;2.00;;;;;;;19.66;45.17;99655.52;153974;1095;103510;-73
2021/05/21 10:44:26;;;;;;;3.53;1.80;;;;;;;19.69;45.37;99655.89;154002;1096;103145;-73
2021/05/21 10:47:37;;;;;;;2.00;1.80;;;;;;;19.73;45.06;99646.29;154112;1101;103301;-74
2021/05/21 10:50:42;;;;;;;2.50;1.80;;;;;;;19.61;43.94;99651.62;153986;1101;103123;-75
2021/05/21 10:53:47;;;;;;;3.30;1.80;;;;;;;19.77;44.73;99638.55;154174;1101;103206;-75
2021/05/21 10:56:51;;;;;;;2.30;1.63;;;;;;;20.00;43.94;99652.17;154017;1101;103263;-75
2021/05/21 10:59:58;;;;;;;3.43;2.00;;;;;;;19.97;43.38;99636.37;154133;1094;103182;-75
2021/05/21 11:03:02;;;;;;;3.13;1.87;;;;;;;19.94;43.89;99642.27;154091;1096;103193;-74
2021/05/21 11:06:23;;;;;;;2.10;1.50;;;;;;;20.02;44.56;99632.98;153985;1101;103122;-75
2021/05/21 11:09:30;;;;;;;1.50;1.40;;;;;;;20.14;43.62;99625.72;154047;1101;103250;-76
2021/05/21 11:12:58;;;;;;;4.45;1.70;;;;;;;20.10;43.95;99627.23;154002;1101;103214;-75
2021/05/21 11:16:04;;;;;;;3.40;1.50;;;;;;;20.18;42.47;99624.19;153977;1101;103141;-76
2021/05/21 11:19:20;;;;;;;1.80;1.40;;;;;;;20.25;43.50;99615.98;154002;1101;103146;-77
2021/05/21 11:22:31;;;;;;;2.60;1.37;;;;;;;20.21;42.92;99617.50;154052;1094;103136;-77
2021/05/21 11:25:37;;;;;;;2.63;1.47;;;;;;;20.22;43.50;99623.74;154098;1096;103100;-77
2021/05/21 11:28:42;;;;;;;4.10;1.30;;;;;;;20.26;42.99;99620.33;154063;1101;103826;-77
2021/05/21 11:31:46;;;;;;;3.13;1.20;;;;;;;20.41;41.97;99617.18;154049;1096;103132;-76
2021/05/21 11:34:50;;;;;;;2.37;1.20;;;;;;;20.51;42.51;99597.63;153987;1101;103272;-76
2021/05/21 11:37:56;;;;;;;1.50;1.30;;;;;;;20.59;42.43;99599.98;154045;1101;103240;-75
2021/05/21 11:41:00;;;;;;;2.30;1.40;;;;;;;20.58;42.09;99592.93;154050;1095;103557;-75
2021/05/21 11:44:06;;;;;;;3.30;1.60;;;;;;;20.47;42.38;99589.14;154005;1101;103256;-80
2021/05/21 11:47:10;;;;;;;2.07;1.33;;;;;;;20.48;42.28;99581.86;154334;1096;103166;-76
2021/05/21 11:50:14;;;;;;;3.60;1.30;;;;;;;20.56;41.90;99578.79;153946;1096;103098;-79
2021/05/21 11:53:19;;;;;;;10.97;2.33;;;;;;;20.62;42.50;99575.16;154007;1096;103224;-79
2021/05/21 11:56:34;;;;;;;2.37;1.30;;;;;;;20.71;42.23;99560.20;154111;1096;103107;-79
2021/05/21 11:59:37;;;;;;;2.63;1.20;;;;;;;20.68;41.61;99566.08;154058;1101;103176;-78
2021/05/21 12:02:41;;;;;;;2.10;1.10;;;;;;;20.71;41.91;99562.91;154018;1094;103137;-75
2021/05/21 12:05:47;;;;;;;2.67;1.23;;;;;;;20.67;41.65;99556.31;153974;1101;103220;-75
2021/05/21 12:08:51;;;;;;;1.50;1.10;;;;;;;20.64;41.89;99547.83;153935;1101;103202;-77
2021/05/21 12:11:56;;;;;;;2.33;1.30;;;;;;;20.66;41.67;99546.52;154039;1101;103101;-75
2021/05/21 12:15:12;;;;;;;1.67;1.13;;;;;;;20.77;41.86;99540.27;153975;1101;103496;-76
2021/05/21 12:18:15;;;;;;;1.90;1.40;;;;;;;20.85;40.63;99547.21;154067;1096;103228;-83
2021/05/21 12:21:23;;;;;;;1.97;1.20;;;;;;;20.74;40.57;99538.02;154147;1095;103166;-78
2021/05/21 12:24:28;;;;;;;2.05;1.20;;;;;;;20.75;41.04;99534.26;154068;1101;103131;-76
2021/05/21 12:27:32;;;;;;;2.80;1.50;;;;;;;20.90;40.82;99528.34;154269;1096;103142;-79
2021/05/21 12:30:37;;;;;;;1.77;1.10;;;;;;;21.00;40.26;99527.73;154022;1101;103286;-77
2021/05/21 12:33:41;;;;;;;2.03;1.40;;;;;;;21.01;40.13;99526.66;154084;1101;103218;-77
2021/05/21 12:36:51;;;;;;;2.63;1.53;;;;;;;21.04;40.13;99526.19;154008;1096;103234;-76
2021/05/21 12:39:55;;;;;;;3.67;1.40;;;;;;;21.03;40.83;99524.52;154028;1101;103122;-75
2021/05/21 12:43:05;;;;;;;3.67;1.20;;;;;;;20.91;39.95;99515.60;154006;1101;103219;-76
2021/05/21 12:46:09;;;;;;;1.97;1.50;;;;;;;20.92;39.65;99514.52;153986;1101;103258;-77
2021/05/21 12:49:13;;;;;;;2.00;1.30;;;;;;;20.99;40.05;99515.22;153988;1096;103169;-77
2021/05/21 12:52:17;;;;;;;5.37;1.40;;;;;;;20.98;40.25;99521.73;154016;1095;103125;-77
2021/05/21 12:55:20;;;;;;;1.60;1.30;;;;;;;21.02;39.52;99512.05;154511;1101;103563;-80
2021/05/21 12:58:24;;;;;;;2.13;1.20;;;;;;;21.18;39.93;99516.70;154763;1101;103219;-80
2021/05/21 13:01:28;;;;;;;2.40;1.33;;;;;;;21.30;40.29;99513.94;154101;1096;103268;-78
2021/05/21 13:04:31;;;;;;;1.73;1.30;;;;;;;21.51;38.62;99509.75;154237;1101;103161;-78
2021/05/21 13:07:36;;;;;;;3.50;1.30;;;;;;;21.62;39.24;99515.39;154292;1096;103602;-78
2021/05/21 13:10:41;;;;;;;5.23;1.77;;;;;;;21.62;39.22;99504.53;154393;1101;103216;-79
2021/05/21 13:13:45;;;;;;;2.70;1.13;;;;;;;21.65;39.30;99496.73;154108;1101;103339;-78
2021/05/21 13:16:51;;;;;;;3.77;1.50;;;;;;;21.61;37.98;99497.44;154002;1096;103160;-81
2021/05/21 13:19:54;;;;;;;2.53;1.20;;;;;;;21.52;39.43;99503.27;154246;1101;103227;-83
2021/05/21 13:23:00;;;;;;;1.63;1.30;;;;;;;21.64;39.47;99494.25;154288;1101;103830;-79
2021/05/21 13:26:06;;;;;;;2.10;1.30;;;;;;;21.71;39.40;99489.47;154270;1101;103221;-77
2021/05/21 13:29:09;;;;;;;3.20;1.30;;;;;;;21.65;38.75;99504.02;154164;1101;103199;-77
2021/05/21 13:32:13;;;;;;;1.57;1.20;;;;;;;21.67;39.48;99486.44;154011;1101;103374;-78
2021/05/21 13:35:17;;;;;;;3.45;1.25;;;;;;;21.85;38.84;99477.23;154167;1101;103478;-76
2021/05/21 13:38:24;;;;;;;1.63;1.20;;;;;;;21.79;38.66;99466.52;154149;1096;103221;-76
2021/05/21 13:41:28;;;;;;;2.53;1.33;;;;;;;21.59;38.79;99467.00;154083;1096;103221;-77
2021/05/21 13:44:32;;;;;;;2.10;1.30;;;;;;;21.69;38.92;99456.31;154038;1101;103136;-74
2021/05/21 13:47:36;;;;;;;1.90;1.30;;;;;;;21.83;37.52;99440.54;154095;1095;103314;-76
2021/05/21 13:50:40;;;;;;;3.90;1.40;;;;;;;21.77;38.22;99442.34;154151;1101;103129;-76
2021/05/21 13:53:43;;;;;;;1.40;1.30;;;;;;;21.64;38.64;99440.77;154017;1101;103195;-78
2021/05/21 13:56:47;;;;;;;2.73;1.10;;;;;;;21.52;37.84;99426.45;154007;1101;103099;-76
2021/05/21 13:59:51;;;;;;;2.43;1.30;;;;;;;21.47;37.77;99431.78;154281;1101;103165;-76
2021/05/21 14:02:54;;;;;;;1.43;1.27;;;;;;;21.45;38.51;99423.06;154143;1094;103402;-75
2021/05/21 14:05:58;;;;;;;1.93;1.10;;;;;;;21.44;38.65;99426.84;154015;1101;103151;-76
2021/05/21 14:09:02;;;;;;;1.60;1.10;;;;;;;21.39;38.11;99432.98;154029;1096;103128;-77